createdAt,value
2019-02-22T00:00:07.556Z,30.08
2019-02-22T00:01:16.052Z,26.82
2019-02-22T00:02:18.956Z,21.60
2019-02-22T00:03:19.967Z,29.30
2019-02-22T00:04:21.018Z,25.08
2019-02-22T00:05:22.040Z,34.45
2019-02-22T00:06:23.061Z,25.52
2019-02-22T00:07:24.077Z,26.80
2019-02-22T00:08:25.196Z,23.15
2019-02-22T00:09:26.220Z,25.02
2019-02-22T00:10:27.232Z,29.75
2019-02-22T00:11:28.261Z,21.42
2019-02-22T00:12:29.285Z,23.12
2019-02-22T00:13:30.298Z,26.80
2019-02-22T00:14:31.384Z,26.60
2019-02-22T00:15:32.397Z,28.52
2019-02-22T00:16:33.417Z,24.02
2019-02-22T00:17:34.433Z,21.57
2019-02-22T00:18:35.444Z,26.05
2019-02-22T00:19:36.460Z,26.42
2019-02-22T00:20:37.480Z,21.37
2019-02-22T00:21:38.494Z,20.55
2019-02-22T00:22:39.652Z,31.73
2019-02-22T00:23:40.716Z,25.08
2019-02-22T00:24:41.760Z,26.73
2019-02-22T00:25:42.793Z,23.45
2019-02-22T00:26:43.894Z,26.82
2019-02-22T00:27:44.919Z,26.55
2019-02-22T00:28:45.964Z,24.15
2019-02-22T00:29:46.992Z,23.45
2019-02-22T00:30:48.007Z,39.38
2019-02-22T00:31:49.019Z,25.25
2019-02-22T00:32:50.039Z,31.25
2019-02-22T00:33:51.053Z,37.10
2019-02-22T00:34:52.135Z,21.40
2019-02-22T00:35:53.215Z,25.77
2019-02-22T00:36:54.432Z,22.07
2019-02-22T00:37:55.865Z,34.03
2019-02-22T00:38:56.880Z,29.98
2019-02-22T00:39:57.900Z,26.60
2019-02-22T00:40:58.920Z,26.30
2019-02-22T00:41:59.933Z,27.10
2019-02-22T00:43:00.949Z,24.45
2019-02-22T00:44:01.970Z,29.40
2019-02-22T00:45:03.086Z,29.72
2019-02-22T00:46:04.125Z,31.52
2019-02-22T00:47:05.140Z,33.73
2019-02-22T00:48:06.167Z,32.50
2019-02-22T00:49:07.181Z,29.48
2019-02-22T00:50:08.304Z,24.30
2019-02-22T00:51:09.317Z,31.70
2019-02-22T00:52:10.328Z,28.67
2019-02-22T00:53:11.353Z,31.00
2019-02-22T00:54:12.368Z,28.12
2019-02-22T00:55:13.380Z,24.90
2019-02-22T00:56:14.409Z,28.02
2019-02-22T00:57:15.435Z,28.12
2019-02-22T00:58:16.515Z,26.55
2019-02-22T00:59:17.528Z,40.67
2019-02-22T01:00:18.553Z,31.73
2019-02-22T01:01:19.571Z,27.55
2019-02-22T01:02:20.584Z,36.20
2019-02-22T01:03:21.600Z,31.27
2019-02-22T01:04:22.608Z,31.85
2019-02-22T01:05:23.635Z,29.05
2019-02-22T01:06:24.653Z,34.55
2019-02-22T01:07:25.673Z,22.80
2019-02-22T01:08:26.684Z,28.60
2019-02-22T01:09:27.708Z,25.68
2019-02-22T01:10:31.508Z,33.38
2019-02-22T01:11:32.050Z,29.15
2019-02-22T01:12:33.074Z,31.55
2019-02-22T01:13:34.420Z,26.60
2019-02-22T01:14:35.415Z,30.32
2019-02-22T01:15:36.450Z,32.15
2019-02-22T01:16:37.481Z,27.45
2019-02-22T01:17:38.572Z,27.45
2019-02-22T01:18:39.625Z,31.52
2019-02-22T01:19:40.640Z,27.60
2019-02-22T01:20:41.675Z,26.77
2019-02-22T01:21:42.701Z,22.67
2019-02-22T01:22:43.713Z,26.27
2019-02-22T01:23:44.756Z,27.45
2019-02-22T01:24:45.773Z,39.00
2019-02-22T01:25:46.895Z,28.10
2019-02-22T01:26:47.952Z,32.42
2019-02-22T01:27:49.043Z,25.30
2019-02-22T01:28:50.068Z,27.15
2019-02-22T01:29:51.083Z,30.72
2019-02-22T01:30:52.109Z,33.05
2019-02-22T01:31:53.129Z,38.73
2019-02-22T01:32:54.140Z,27.75
2019-02-22T01:33:55.174Z,27.05
2019-02-22T01:34:56.244Z,36.70
2019-02-22T01:35:57.300Z,26.37
2019-02-22T01:36:58.308Z,28.92
2019-02-22T01:37:59.340Z,31.52
2019-02-22T01:39:00.353Z,23.50
2019-02-22T01:40:01.719Z,28.55
2019-02-22T01:41:02.774Z,27.35
2019-02-22T01:42:03.784Z,26.82
2019-02-22T01:43:04.806Z,26.27
2019-02-22T01:44:17.449Z,34.58
2019-02-22T01:45:18.457Z,35.38
2019-02-22T01:46:19.478Z,29.60
2019-02-22T01:47:20.493Z,36.95
2019-02-22T01:48:21.520Z,31.07
2019-02-22T01:49:22.533Z,28.85
2019-02-22T01:50:23.540Z,33.80
2019-02-22T01:51:24.636Z,27.35
2019-02-22T01:52:25.674Z,25.60
2019-02-22T01:53:26.694Z,26.33
2019-02-22T01:54:27.704Z,25.68
2019-02-22T01:55:28.727Z,25.60
2019-02-22T01:56:29.776Z,29.92
2019-02-22T01:57:30.791Z,31.95
2019-02-22T01:58:31.812Z,21.17
2019-02-22T01:59:32.899Z,26.35
2019-02-22T02:00:33.904Z,27.32
2019-02-22T02:01:34.936Z,33.75
2019-02-22T02:02:35.947Z,26.90
2019-02-22T02:03:36.968Z,30.95
2019-02-22T02:04:37.990Z,25.48
2019-02-22T02:05:39.000Z,31.60
2019-02-22T02:06:40.132Z,32.50
2019-02-22T02:07:41.149Z,29.52
2019-02-22T02:08:42.213Z,21.33
2019-02-22T02:09:43.228Z,28.77
2019-02-22T02:10:53.851Z,25.35
2019-02-22T02:11:47.194Z,26.12
2019-02-22T02:12:48.239Z,29.07
2019-02-22T02:13:49.244Z,25.37
2019-02-22T02:14:50.276Z,27.07
2019-02-22T02:15:51.390Z,35.20
2019-02-22T02:16:52.419Z,24.85
2019-02-22T02:17:53.439Z,24.72
2019-02-22T02:18:54.464Z,27.30
2019-02-22T02:19:55.496Z,23.02
2019-02-22T02:20:56.569Z,32.53
2019-02-22T02:21:57.700Z,27.02
2019-02-22T02:22:58.722Z,31.65
2019-02-22T02:23:59.726Z,33.20
2019-02-22T02:25:00.776Z,30.37
2019-02-22T02:26:01.800Z,22.37
2019-02-22T02:27:02.819Z,24.50
2019-02-22T02:28:03.928Z,33.48
2019-02-22T02:29:04.945Z,39.27
2019-02-22T02:30:08.276Z,24.92
2019-02-22T02:31:09.418Z,25.23
2019-02-22T02:32:10.487Z,29.70
2019-02-22T02:33:11.515Z,28.98
2019-02-22T02:34:12.531Z,28.52
2019-02-22T02:35:13.557Z,23.25
2019-02-22T02:36:14.577Z,24.10
2019-02-22T02:37:15.597Z,27.20
2019-02-22T02:38:16.616Z,23.87
2019-02-22T02:39:17.631Z,23.73
2019-02-22T02:40:18.644Z,21.00
2019-02-22T02:41:19.670Z,28.30
2019-02-22T02:42:20.679Z,23.02
2019-02-22T02:43:21.684Z,31.90
2019-02-22T02:44:22.704Z,26.40
2019-02-22T02:45:23.726Z,28.47
2019-02-22T02:46:24.750Z,30.25
2019-02-22T02:47:25.774Z,26.65
2019-02-22T02:48:26.787Z,25.02
2019-02-22T02:49:27.891Z,25.15
2019-02-22T02:50:28.900Z,27.32
2019-02-22T02:51:30.206Z,28.87
2019-02-22T02:52:31.211Z,21.70
2019-02-22T02:53:32.223Z,24.15
2019-02-22T02:54:33.249Z,27.00
2019-02-22T02:55:34.292Z,26.62
2019-02-22T02:56:35.331Z,33.13
2019-02-22T02:57:36.341Z,27.20
2019-02-22T02:58:37.481Z,25.77
2019-02-22T02:59:38.568Z,25.90
2019-02-22T03:00:39.862Z,38.88
2019-02-22T03:01:40.976Z,24.82
2019-02-22T03:02:41.989Z,27.67
2019-02-22T03:03:43.014Z,28.85
2019-02-22T03:04:44.028Z,26.82
2019-02-22T03:05:49.702Z,25.52
2019-02-22T03:06:58.637Z,27.42
2019-02-22T03:08:00.752Z,32.30
2019-02-22T03:09:02.780Z,23.07
2019-02-22T03:10:05.395Z,27.13
2019-02-22T03:11:06.420Z,22.30
2019-02-22T03:12:07.450Z,22.48
2019-02-22T03:13:08.466Z,37.10
2019-02-22T03:14:09.484Z,22.05
2019-02-22T03:15:12.618Z,24.90
2019-02-22T03:16:13.625Z,29.57
2019-02-22T03:17:14.652Z,26.07
2019-02-22T03:18:15.670Z,22.95
2019-02-22T03:19:16.688Z,27.25
2019-02-22T03:20:17.700Z,29.32
2019-02-22T03:21:18.718Z,30.20
2019-02-22T03:22:19.747Z,26.30
2019-02-22T03:23:21.039Z,25.55
2019-02-22T03:24:22.053Z,27.07
2019-02-22T03:25:23.074Z,23.92
2019-02-22T03:26:24.085Z,36.17
2019-02-22T03:27:25.151Z,27.32
2019-02-22T03:28:26.240Z,27.35
2019-02-22T03:29:27.249Z,30.12
2019-02-22T03:30:28.261Z,29.02
2019-02-22T03:31:29.434Z,30.45
2019-02-22T03:32:30.650Z,26.80
2019-02-22T03:33:31.800Z,30.70
2019-02-22T03:34:32.901Z,22.35
2019-02-22T03:35:33.913Z,23.75
2019-02-22T03:36:34.942Z,25.43
2019-02-22T03:37:36.016Z,31.20
2019-02-22T03:38:37.022Z,24.85
2019-02-22T03:39:38.043Z,24.47
2019-02-22T03:40:39.058Z,23.10
2019-02-22T03:41:40.075Z,36.00
2019-02-22T03:42:41.182Z,25.17
2019-02-22T03:43:42.201Z,25.15
2019-02-22T03:44:43.213Z,22.62
2019-02-22T03:45:44.222Z,25.68
2019-02-22T03:46:45.231Z,29.70
2019-02-22T03:47:46.264Z,30.40
2019-02-22T03:48:47.286Z,29.02
2019-02-22T03:49:48.293Z,28.98
2019-02-22T03:50:49.318Z,28.07
2019-02-22T03:51:50.348Z,32.33
2019-02-22T03:52:53.264Z,31.90
2019-02-22T03:53:57.274Z,30.65
2019-02-22T03:54:57.423Z,31.50
2019-02-22T03:55:58.440Z,29.87
2019-02-22T03:56:59.461Z,26.45
2019-02-22T03:58:00.788Z,31.82
2019-02-22T03:59:02.014Z,30.17
2019-02-22T04:00:08.501Z,31.80
2019-02-22T04:01:09.513Z,32.73
2019-02-22T04:02:10.624Z,35.70
2019-02-22T04:03:11.657Z,23.30
2019-02-22T04:04:12.672Z,27.67
2019-02-22T04:05:13.689Z,33.75
2019-02-22T04:06:14.700Z,36.03
2019-02-22T04:07:15.839Z,32.83
2019-02-22T04:08:16.866Z,30.05
2019-02-22T04:09:17.889Z,31.02
2019-02-22T04:10:18.902Z,30.57
2019-02-22T04:11:19.937Z,31.10
2019-02-22T04:12:20.949Z,33.10
2019-02-22T04:13:21.992Z,33.75
2019-02-22T04:14:23.062Z,32.33
2019-02-22T04:15:24.893Z,30.10
2019-02-22T04:16:26.093Z,31.12
2019-02-22T04:17:27.109Z,32.70
2019-02-22T04:18:28.140Z,30.25
2019-02-22T04:19:29.175Z,27.82
2019-02-22T04:20:30.193Z,33.70
2019-02-22T04:21:31.219Z,41.13
2019-02-22T04:22:32.217Z,38.95
2019-02-22T04:23:33.229Z,43.50
2019-02-22T04:24:34.243Z,35.73
2019-02-22T04:25:35.255Z,34.27
2019-02-22T04:26:36.295Z,33.25
2019-02-22T04:27:37.313Z,32.20
2019-02-22T04:28:38.366Z,36.23
2019-02-22T04:29:39.380Z,33.63
2019-02-22T04:30:40.396Z,36.65
2019-02-22T04:31:41.414Z,33.70
2019-02-22T04:32:42.434Z,35.20
2019-02-22T04:33:43.458Z,33.35
2019-02-22T04:34:44.738Z,41.45
2019-02-22T04:35:45.745Z,45.03
2019-02-22T04:36:46.770Z,30.80
2019-02-22T04:37:47.795Z,33.10
2019-02-22T04:38:48.814Z,34.90
2019-02-22T04:39:49.830Z,37.50
2019-02-22T04:40:50.861Z,33.88
2019-02-22T04:41:58.086Z,38.00
2019-02-22T04:42:54.820Z,30.23
2019-02-22T04:43:55.924Z,36.15
2019-02-22T04:44:56.946Z,39.73
2019-02-22T04:45:57.968Z,40.23
2019-02-22T04:46:58.984Z,38.95
2019-02-22T04:48:00.009Z,36.60
2019-02-22T04:49:01.033Z,38.45
2019-02-22T04:50:02.250Z,34.88
2019-02-22T04:51:03.265Z,32.85
2019-02-22T04:52:04.283Z,38.73
2019-02-22T04:53:05.308Z,35.78
2019-02-22T04:54:06.325Z,47.35
2019-02-22T04:55:07.550Z,33.90
2019-02-22T04:56:08.573Z,32.15
2019-02-22T04:57:09.607Z,35.28
2019-02-22T04:58:10.720Z,36.77
2019-02-22T04:59:11.744Z,43.40
2019-02-22T05:00:13.091Z,31.48
2019-02-22T05:01:14.105Z,30.05
2019-02-22T05:02:15.339Z,35.00
2019-02-22T05:03:16.360Z,37.50
2019-02-22T05:04:17.480Z,33.73
2019-02-22T05:05:18.494Z,32.75
2019-02-22T05:06:19.506Z,39.33
2019-02-22T05:07:20.524Z,36.38
2019-02-22T05:08:21.554Z,36.65
2019-02-22T05:09:22.581Z,38.80
2019-02-22T05:10:23.596Z,32.15
2019-02-22T05:11:24.616Z,39.50
2019-02-22T05:12:25.635Z,35.60
2019-02-22T05:13:26.668Z,34.95
2019-02-22T05:14:27.695Z,36.35
2019-02-22T05:15:28.736Z,36.77
2019-02-22T05:16:29.818Z,46.77
2019-02-22T05:17:30.829Z,39.25
2019-02-22T05:18:31.858Z,41.42
2019-02-22T05:19:32.881Z,38.08
2019-02-22T05:20:33.896Z,43.73
2019-02-22T05:21:34.931Z,36.40
2019-02-22T05:22:35.983Z,37.48
2019-02-22T05:23:37.074Z,34.33
2019-02-22T05:24:38.132Z,38.02
2019-02-22T05:25:39.172Z,44.00
2019-02-22T05:26:40.188Z,32.25
2019-02-22T05:27:41.206Z,36.28
2019-02-22T05:28:42.236Z,36.23
2019-02-22T05:29:43.259Z,32.63
2019-02-22T05:30:44.373Z,43.70
2019-02-22T05:31:45.393Z,34.67
2019-02-22T05:32:46.418Z,35.50
2019-02-22T05:33:47.444Z,34.20
2019-02-22T05:34:48.474Z,32.98
2019-02-22T05:35:49.558Z,38.85
2019-02-22T05:36:50.585Z,37.78
2019-02-22T05:37:51.597Z,40.48
2019-02-22T05:38:52.661Z,37.35
2019-02-22T05:39:53.683Z,41.37
2019-02-22T05:40:54.709Z,34.15
2019-02-22T05:41:55.765Z,44.77
2019-02-22T05:42:56.771Z,28.42
2019-02-22T05:43:57.819Z,38.17
2019-02-22T05:44:58.841Z,44.95
2019-02-22T05:45:59.868Z,40.88
2019-02-22T05:47:00.911Z,50.55
2019-02-22T05:48:02.011Z,36.93
2019-02-22T05:49:03.058Z,38.28
2019-02-22T05:50:04.480Z,31.12
2019-02-22T05:51:05.494Z,41.60
2019-02-22T05:52:06.520Z,42.30
2019-02-22T05:53:07.545Z,39.20
2019-02-22T05:54:08.602Z,33.88
2019-02-22T05:55:09.639Z,42.15
2019-02-22T05:56:10.645Z,42.95
2019-02-22T05:57:14.181Z,32.05
2019-02-22T05:58:14.677Z,32.58
2019-02-22T05:59:15.748Z,38.83
2019-02-22T06:00:17.636Z,42.23
2019-02-22T06:01:18.674Z,41.13
2019-02-22T06:02:19.772Z,37.63
2019-02-22T06:03:20.816Z,47.53
2019-02-22T06:04:21.832Z,38.90
2019-02-22T06:05:22.841Z,39.08
2019-02-22T06:06:23.860Z,40.92
2019-02-22T06:07:24.880Z,39.35
2019-02-22T06:08:25.902Z,43.75
2019-02-22T06:09:26.919Z,39.95
2019-02-22T06:10:27.928Z,35.30
2019-02-22T06:11:28.964Z,42.38
2019-02-22T06:12:34.558Z,39.18
2019-02-22T06:13:32.916Z,54.42
2019-02-22T06:14:33.925Z,41.58
2019-02-22T06:15:34.972Z,39.50
2019-02-22T06:16:37.904Z,50.10
2019-02-22T06:17:38.917Z,42.30
2019-02-22T06:18:39.973Z,44.60
2019-02-22T06:19:41.009Z,37.05
2019-02-22T06:20:42.053Z,44.30
2019-02-22T06:21:43.136Z,33.78
2019-02-22T06:22:44.136Z,38.25
2019-02-22T06:23:45.165Z,36.98
2019-02-22T06:24:46.209Z,43.95
2019-02-22T06:25:47.230Z,39.83
2019-02-22T06:26:48.294Z,39.53
2019-02-22T06:27:49.345Z,38.70
2019-02-22T06:28:50.376Z,40.80
2019-02-22T06:29:51.471Z,38.90
2019-02-22T06:30:52.477Z,46.37
2019-02-22T06:31:53.655Z,39.63
2019-02-22T06:32:54.649Z,32.73
2019-02-22T06:33:55.680Z,52.20
2019-02-22T06:34:56.708Z,41.23
2019-02-22T06:36:01.216Z,37.95
2019-02-22T06:37:02.604Z,50.50
2019-02-22T06:38:03.862Z,42.55
2019-02-22T06:39:04.927Z,52.40
2019-02-22T06:40:07.682Z,39.58
2019-02-22T06:41:08.798Z,56.98
2019-02-22T06:42:09.825Z,52.43
2019-02-22T06:43:10.844Z,39.85
2019-02-22T06:44:12.035Z,42.60
2019-02-22T06:45:13.195Z,48.58
2019-02-22T06:46:14.216Z,42.88
2019-02-22T06:47:15.265Z,46.02
2019-02-22T06:48:16.313Z,40.55
2019-02-22T06:49:17.410Z,39.98
2019-02-22T06:50:18.429Z,40.35
2019-02-22T06:51:19.444Z,45.75
2019-02-22T06:52:20.476Z,39.23
2019-02-22T06:53:21.548Z,44.15
2019-02-22T06:54:22.580Z,53.95
2019-02-22T06:55:23.608Z,35.15
2019-02-22T06:56:24.628Z,51.45
2019-02-22T06:57:25.665Z,50.98
2019-02-22T06:58:26.686Z,49.35
2019-02-22T06:59:27.722Z,49.80
2019-02-22T07:00:28.743Z,47.25
2019-02-22T07:01:29.770Z,45.20
2019-02-22T07:02:30.785Z,42.98
2019-02-22T07:03:31.823Z,40.03
2019-02-22T07:04:32.875Z,50.63
2019-02-22T07:05:33.880Z,52.93
2019-02-22T07:06:34.902Z,45.05
2019-02-22T07:07:35.920Z,54.95
2019-02-22T07:08:36.964Z,52.83
2019-02-22T07:09:38.021Z,46.48
2019-02-22T07:10:53.006Z,47.38
2019-02-22T07:11:55.961Z,57.20
2019-02-22T07:12:59.068Z,42.20
2019-02-22T07:14:00.080Z,41.13
2019-02-22T07:15:01.112Z,42.35
2019-02-22T07:16:02.137Z,37.38
2019-02-22T07:17:03.154Z,44.40
2019-02-22T07:18:04.164Z,47.35
2019-02-22T07:19:05.196Z,53.02
2019-02-22T07:20:08.428Z,53.80
2019-02-22T07:21:09.450Z,42.23
2019-02-22T07:22:10.460Z,63.13
2019-02-22T07:23:11.574Z,44.08
2019-02-22T07:24:12.696Z,36.70
2019-02-22T07:25:13.814Z,44.30
2019-02-22T07:26:14.826Z,44.25
2019-02-22T07:27:15.856Z,45.25
2019-02-22T07:28:16.880Z,45.78
2019-02-22T07:29:17.912Z,50.03
2019-02-22T07:30:18.937Z,49.38
2019-02-22T07:31:19.951Z,37.95
2019-02-22T07:32:20.973Z,49.63
2019-02-22T07:33:21.993Z,47.88
2019-02-22T07:34:23.008Z,42.20
2019-02-22T07:35:24.037Z,45.90
2019-02-22T07:36:25.059Z,46.98
2019-02-22T07:37:26.083Z,48.15
2019-02-22T07:38:27.116Z,60.75
2019-02-22T07:39:28.384Z,47.17
2019-02-22T07:40:29.529Z,39.98
2019-02-22T07:41:30.581Z,42.55
2019-02-22T07:42:31.612Z,47.98
2019-02-22T07:43:32.627Z,52.60
2019-02-22T07:44:33.643Z,44.98
2019-02-22T07:45:34.672Z,40.23
2019-02-22T07:46:36.003Z,41.23
2019-02-22T07:47:37.032Z,46.95
2019-02-22T07:48:38.064Z,42.15
2019-02-22T07:49:39.087Z,43.73
2019-02-22T07:50:40.109Z,44.77
2019-02-22T07:51:41.143Z,40.17
2019-02-22T07:52:44.571Z,44.18
2019-02-22T07:53:45.140Z,43.42
2019-02-22T07:54:46.152Z,41.85
2019-02-22T07:55:47.188Z,51.92
2019-02-22T07:56:48.214Z,40.10
2019-02-22T07:57:49.403Z,41.60
2019-02-22T07:58:50.418Z,43.85
2019-02-22T07:59:51.465Z,51.42
2019-02-22T08:00:52.531Z,49.88
2019-02-22T08:01:53.551Z,42.25
2019-02-22T08:02:54.592Z,41.23
2019-02-22T08:03:55.617Z,39.03
2019-02-22T08:04:56.630Z,44.70
2019-02-22T08:05:57.759Z,42.95
2019-02-22T08:06:58.784Z,50.70
2019-02-22T08:07:59.801Z,38.50
2019-02-22T08:09:00.858Z,49.83
2019-02-22T08:10:02.997Z,52.20
2019-02-22T08:11:04.457Z,33.88
2019-02-22T08:12:05.917Z,51.28
2019-02-22T08:13:07.005Z,38.02
2019-02-22T08:14:08.110Z,40.80
2019-02-22T08:15:09.281Z,46.13
2019-02-22T08:16:10.362Z,45.88
2019-02-22T08:17:11.414Z,46.20
2019-02-22T08:18:12.449Z,45.28
2019-02-22T08:19:13.461Z,40.17
2019-02-22T08:20:14.484Z,41.23
2019-02-22T08:21:15.517Z,45.65
2019-02-22T08:22:16.580Z,42.93
2019-02-22T08:23:17.608Z,50.58
2019-02-22T08:24:18.632Z,47.48
2019-02-22T08:25:19.661Z,41.28
2019-02-22T08:26:20.728Z,55.10
2019-02-22T08:27:21.760Z,47.08
2019-02-22T08:28:22.792Z,38.60
2019-02-22T08:29:23.827Z,38.83
2019-02-22T08:30:24.839Z,39.80
2019-02-22T08:31:25.864Z,36.23
2019-02-22T08:32:28.256Z,41.73
2019-02-22T08:33:29.275Z,43.40
2019-02-22T08:34:30.325Z,46.37
2019-02-22T08:35:31.407Z,36.65
2019-02-22T08:36:32.446Z,38.78
2019-02-22T08:37:33.472Z,46.48
2019-02-22T08:38:34.489Z,40.03
2019-02-22T08:39:35.533Z,58.45
2019-02-22T08:40:36.540Z,37.90
2019-02-22T08:41:37.576Z,41.28
2019-02-22T08:42:38.608Z,40.83
2019-02-22T08:43:39.623Z,39.13
2019-02-22T08:44:40.664Z,33.35
2019-02-22T08:45:41.688Z,47.33
2019-02-22T08:46:42.709Z,49.30
2019-02-22T08:47:43.828Z,37.85
2019-02-22T08:48:44.890Z,39.55
2019-02-22T08:49:45.918Z,45.90
2019-02-22T08:50:47.016Z,30.62
2019-02-22T08:51:48.053Z,34.65
2019-02-22T08:52:49.068Z,37.73
2019-02-22T08:53:50.096Z,39.05
2019-02-22T08:54:51.411Z,45.10
2019-02-22T08:55:52.494Z,35.70
2019-02-22T08:56:53.564Z,37.50
2019-02-22T08:57:54.668Z,44.55
2019-02-22T08:58:55.709Z,44.35
2019-02-22T08:59:56.722Z,35.68
2019-02-22T09:00:57.749Z,40.43
2019-02-22T09:01:58.780Z,37.17
2019-02-22T09:02:59.813Z,34.00
2019-02-22T09:04:00.840Z,46.10
2019-02-22T09:05:02.059Z,36.50
2019-02-22T09:06:03.076Z,39.67
2019-02-22T09:07:04.394Z,51.85
2019-02-22T09:08:05.409Z,39.35
2019-02-22T09:09:06.557Z,38.75
2019-02-22T09:10:10.864Z,31.95
2019-02-22T09:11:11.897Z,29.37
2019-02-22T09:12:12.930Z,34.48
2019-02-22T09:13:13.970Z,44.40
2019-02-22T09:14:15.045Z,30.82
2019-02-22T09:15:18.037Z,41.73
2019-02-22T09:16:19.064Z,30.55
2019-02-22T09:17:20.081Z,32.15
2019-02-22T09:18:21.097Z,34.85
2019-02-22T09:19:22.123Z,40.55
2019-02-22T09:20:23.241Z,33.40
2019-02-22T09:21:24.257Z,53.90
2019-02-22T09:22:25.280Z,42.30
2019-02-22T09:23:26.306Z,44.20
2019-02-22T09:24:27.317Z,40.28
2019-02-22T09:25:28.356Z,35.92
2019-02-22T09:26:29.369Z,38.05
2019-02-22T09:27:30.432Z,43.87
2019-02-22T09:28:31.541Z,39.20
2019-02-22T09:29:32.564Z,34.98
2019-02-22T09:30:33.592Z,49.23
2019-02-22T09:31:34.619Z,34.15
2019-02-22T09:32:35.630Z,46.98
2019-02-22T09:33:36.636Z,49.00
2019-02-22T09:34:37.684Z,36.60
2019-02-22T09:35:39.230Z,34.23
2019-02-22T09:36:40.520Z,39.05
2019-02-22T09:37:41.543Z,26.68
2019-02-22T09:38:42.580Z,33.13
2019-02-22T09:39:43.601Z,35.20
2019-02-22T09:40:44.617Z,35.58
2019-02-22T09:41:45.653Z,53.83
2019-02-22T09:42:46.665Z,40.12
2019-02-22T09:43:55.479Z,38.73
2019-02-22T09:44:50.597Z,53.70
2019-02-22T09:45:51.608Z,37.67
2019-02-22T09:46:52.632Z,35.30
2019-02-22T09:47:53.652Z,34.30
2019-02-22T09:48:54.673Z,30.35
2019-02-22T09:49:55.688Z,29.90
2019-02-22T09:50:56.808Z,41.35
2019-02-22T09:51:57.905Z,32.15
2019-02-22T09:52:58.915Z,46.28
2019-02-22T09:53:59.951Z,35.28
2019-02-22T09:55:00.968Z,39.38
2019-02-22T09:56:01.990Z,42.30
2019-02-22T09:57:03.417Z,51.05
2019-02-22T09:58:04.427Z,37.53
2019-02-22T09:59:05.432Z,41.75
2019-02-22T10:00:09.271Z,40.23
2019-02-22T10:01:10.349Z,40.38
2019-02-22T10:02:11.371Z,35.73
2019-02-22T10:03:12.388Z,38.88
2019-02-22T10:04:13.432Z,34.70
2019-02-22T10:05:14.694Z,41.37
2019-02-22T10:06:15.753Z,34.55
2019-02-22T10:07:16.879Z,40.98
2019-02-22T10:08:17.893Z,44.75
2019-02-22T10:09:18.929Z,35.80
2019-02-22T10:10:20.052Z,33.50
2019-02-22T10:11:21.080Z,38.25
2019-02-22T10:12:22.121Z,41.88
2019-02-22T10:13:23.142Z,32.28
2019-02-22T10:14:24.161Z,34.48
2019-02-22T10:15:25.311Z,34.55
2019-02-22T10:16:27.617Z,31.90
2019-02-22T10:17:28.865Z,32.03
2019-02-22T10:18:29.881Z,31.02
2019-02-22T10:19:30.917Z,34.80
2019-02-22T10:20:31.924Z,35.30
2019-02-22T10:21:32.984Z,33.45
2019-02-22T10:22:34.010Z,29.72
2019-02-22T10:23:35.034Z,30.57
2019-02-22T10:24:36.047Z,29.75
2019-02-22T10:25:37.056Z,30.97
2019-02-22T10:26:38.068Z,30.88
2019-02-22T10:27:39.106Z,26.75
2019-02-22T10:28:40.136Z,35.55
2019-02-22T10:29:41.152Z,29.87
2019-02-22T10:30:43.028Z,31.85
2019-02-22T10:31:44.049Z,31.80
2019-02-22T10:32:45.090Z,24.27
2019-02-22T10:33:46.103Z,28.47
2019-02-22T10:34:47.135Z,29.37
2019-02-22T10:35:48.156Z,43.25
2019-02-22T10:36:49.186Z,30.43
2019-02-22T10:37:50.240Z,26.05
2019-02-22T10:38:51.269Z,34.43
2019-02-22T10:39:52.281Z,38.85
2019-02-22T10:40:53.305Z,31.60
2019-02-22T10:41:54.320Z,28.45
2019-02-22T10:42:55.357Z,29.12
2019-02-22T10:43:56.387Z,31.77
2019-02-22T10:44:57.405Z,33.25
2019-02-22T10:45:58.417Z,38.02
2019-02-22T10:46:59.500Z,25.92
2019-02-22T10:48:00.521Z,23.80
2019-02-22T10:49:01.565Z,31.77
2019-02-22T10:50:03.078Z,23.45
2019-02-22T10:51:04.207Z,30.80
2019-02-22T10:52:05.216Z,22.98
2019-02-22T10:53:06.315Z,34.23
2019-02-22T10:54:07.371Z,24.63
2019-02-22T10:55:10.588Z,32.33
2019-02-22T10:56:11.597Z,26.30
2019-02-22T10:57:12.815Z,28.70
2019-02-22T10:58:13.939Z,27.25
2019-02-22T10:59:14.952Z,28.62
2019-02-22T11:00:15.971Z,26.00
2019-02-22T11:01:16.988Z,24.82
2019-02-22T11:02:18.017Z,21.75
2019-02-22T11:03:19.048Z,20.77
2019-02-22T11:04:20.069Z,19.00
2019-02-22T11:05:21.089Z,25.08
2019-02-22T11:06:22.108Z,23.18
2019-02-22T11:07:23.274Z,19.65
2019-02-22T11:08:24.468Z,24.05
2019-02-22T11:09:25.538Z,21.35
2019-02-22T11:10:26.545Z,21.87
2019-02-22T11:11:27.573Z,16.32
2019-02-22T11:12:28.576Z,19.62
2019-02-22T11:13:29.600Z,18.20
2019-02-22T11:14:30.612Z,19.92
2019-02-22T11:15:31.643Z,22.10
2019-02-22T11:16:32.662Z,24.92
2019-02-22T11:17:33.682Z,21.37
2019-02-22T11:18:34.708Z,21.60
2019-02-22T11:19:35.725Z,30.00
2019-02-22T11:20:36.750Z,20.43
2019-02-22T11:21:37.757Z,21.90
2019-02-22T11:22:38.872Z,20.75
2019-02-22T11:23:39.907Z,26.05
2019-02-22T11:24:40.975Z,19.25
2019-02-22T11:25:42.086Z,21.60
2019-02-22T11:26:43.092Z,21.55
2019-02-22T11:27:44.114Z,24.87
2019-02-22T11:28:45.147Z,22.17
2019-02-22T11:29:48.163Z,29.92
2019-02-22T11:30:49.096Z,21.73
2019-02-22T11:31:50.108Z,22.80
2019-02-22T11:32:51.158Z,25.72
2019-02-22T11:33:52.254Z,21.97
2019-02-22T11:34:53.271Z,19.80
2019-02-22T11:35:54.284Z,21.97
2019-02-22T11:36:55.300Z,20.90
2019-02-22T11:37:56.424Z,23.62
2019-02-22T11:38:57.546Z,20.90
2019-02-22T11:39:58.577Z,18.07
2019-02-22T11:40:59.627Z,29.45
2019-02-22T11:42:00.954Z,21.77
2019-02-22T11:43:01.969Z,20.35
2019-02-22T11:44:02.996Z,17.10
2019-02-22T11:45:05.513Z,19.17
2019-02-22T11:46:06.565Z,20.43
2019-02-22T11:47:07.582Z,27.20
2019-02-22T11:48:09.530Z,26.85
2019-02-22T11:49:10.756Z,20.25
2019-02-22T11:50:11.869Z,17.25
2019-02-22T11:51:12.893Z,17.60
2019-02-22T11:52:13.892Z,19.67
2019-02-22T11:53:14.935Z,18.95
2019-02-22T11:54:16.146Z,21.37
2019-02-22T11:55:17.151Z,17.92
2019-02-22T11:56:18.285Z,15.70
2019-02-22T11:57:19.687Z,16.17
2019-02-22T11:58:20.820Z,16.27
2019-02-22T11:59:21.864Z,25.20
2019-02-22T12:00:23.497Z,16.67
2019-02-22T12:01:24.511Z,12.50
2019-02-22T12:02:25.532Z,18.20
2019-02-22T12:03:26.562Z,13.80
2019-02-22T12:04:27.589Z,17.20
2019-02-22T12:05:28.615Z,14.35
2019-02-22T12:06:29.663Z,16.17
2019-02-22T12:07:30.676Z,14.58
2019-02-22T12:08:31.691Z,16.15
2019-02-22T12:09:32.720Z,11.38
2019-02-22T12:10:33.853Z,9.40
2019-02-22T12:11:34.866Z,14.23
2019-02-22T12:12:35.884Z,13.30
2019-02-22T12:13:37.024Z,12.73
2019-02-22T12:14:38.142Z,12.15
2019-02-22T12:15:39.166Z,17.30
2019-02-22T12:16:40.213Z,16.37
2019-02-22T12:17:41.243Z,15.45
2019-02-22T12:18:42.296Z,11.90
2019-02-22T12:19:43.392Z,19.80
2019-02-22T12:20:44.418Z,13.72
2019-02-22T12:21:45.428Z,11.90
2019-02-22T12:22:46.464Z,10.18
2019-02-22T12:23:47.485Z,14.85
2019-02-22T12:24:48.507Z,10.93
2019-02-22T12:25:49.844Z,10.78
2019-02-22T12:26:50.908Z,14.85
2019-02-22T12:27:51.996Z,11.18
2019-02-22T12:28:53.004Z,13.65
2019-02-22T12:29:54.032Z,12.70
2019-02-22T12:30:55.056Z,19.23
2019-02-22T12:31:56.540Z,16.50
2019-02-22T12:32:57.666Z,18.32
2019-02-22T12:33:58.688Z,14.78
2019-02-22T12:34:59.704Z,16.30
2019-02-22T12:36:00.721Z,15.48
2019-02-22T12:37:01.754Z,20.80
2019-02-22T12:38:02.768Z,17.92
2019-02-22T12:39:04.703Z,24.67
2019-02-22T12:40:09.540Z,24.10
2019-02-22T12:41:10.553Z,19.30
2019-02-22T12:42:11.568Z,16.50
2019-02-22T12:43:12.640Z,18.80
2019-02-22T12:44:14.040Z,17.60
2019-02-22T12:45:15.063Z,18.82
2019-02-22T12:46:16.098Z,19.48
2019-02-22T12:47:17.105Z,16.85
2019-02-22T12:48:18.264Z,17.52
2019-02-22T12:49:19.290Z,14.55
2019-02-22T12:50:20.360Z,22.73
2019-02-22T12:51:21.368Z,16.27
2019-02-22T12:52:22.505Z,17.25
2019-02-22T12:53:23.529Z,20.15
2019-02-22T12:54:24.552Z,18.50
2019-02-22T12:55:25.613Z,15.85
2019-02-22T12:56:55.840Z,17.20
2019-02-22T12:57:29.569Z,15.45
2019-02-22T12:58:30.593Z,17.57
2019-02-22T12:59:31.854Z,17.37
2019-02-22T13:00:32.873Z,17.17
2019-02-22T13:01:33.961Z,14.55
2019-02-22T13:02:35.140Z,14.73
2019-02-22T13:03:36.298Z,12.20
2019-02-22T13:04:37.324Z,13.65
2019-02-22T13:05:38.331Z,20.43
2019-02-22T13:06:39.342Z,14.87
2019-02-22T13:07:40.368Z,14.07